地図

経路データ

SID SEASON NUMBER BASIN SUBBASIN NAME ISO_TIME NATURE LAT LON WMO_WIND WMO_PRES WMO_AGENCY TRACK_TYPE DIST2LAND LANDFALL IFLAG USA_AGENCY USA_ATCF_ID USA_LAT USA_LON USA_RECORD USA_STATUS USA_WIND USA_PRES USA_SSHS USA_R34_NE USA_R34_SE USA_R34_SW USA_R34_NW USA_R50_NE USA_R50_SE USA_R50_SW USA_R50_NW USA_R64_NE USA_R64_SE USA_R64_SW USA_R64_NW USA_POCI USA_ROCI USA_RMW USA_EYE TOKYO_LAT TOKYO_LON TOKYO_GRADE TOKYO_WIND TOKYO_PRES TOKYO_R50_DIR TOKYO_R50_LONG TOKYO_R50_SHORT TOKYO_R30_DIR TOKYO_R30_LONG TOKYO_R30_SHORT TOKYO_LAND CMA_LAT CMA_LON CMA_CAT CMA_WIND CMA_PRES HKO_LAT HKO_LON HKO_CAT HKO_WIND HKO_PRES NEWDELHI_LAT NEWDELHI_LON NEWDELHI_GRADE NEWDELHI_WIND NEWDELHI_PRES NEWDELHI_CI NEWDELHI_DP NEWDELHI_POCI REUNION_LAT REUNION_LON REUNION_TYPE REUNION_WIND REUNION_PRES REUNION_TNUM REUNION_CI REUNION_RMW REUNION_R34_NE REUNION_R34_SE REUNION_R34_SW REUNION_R34_NW REUNION_R50_NE REUNION_R50_SE REUNION_R50_SW REUNION_R50_NW REUNION_R64_NE REUNION_R64_SE REUNION_R64_SW REUNION_R64_NW BOM_LAT BOM_LON BOM_TYPE BOM_WIND BOM_PRES BOM_TNUM BOM_CI BOM_RMW BOM_R34_NE BOM_R34_SE BOM_R34_SW BOM_R34_NW BOM_R50_NE BOM_R50_SE BOM_R50_SW BOM_R50_NW BOM_R64_NE BOM_R64_SE BOM_R64_SW BOM_R64_NW BOM_ROCI BOM_POCI BOM_EYE BOM_POS_METHOD BOM_PRES_METHOD NADI_LAT NADI_LON NADI_CAT NADI_WIND NADI_PRES WELLINGTON_LAT WELLINGTON_LON WELLINGTON_WIND WELLINGTON_PRES DS824_LAT DS824_LON DS824_STAGE DS824_WIND DS824_PRES TD9636_LAT TD9636_LON TD9636_STAGE TD9636_WIND TD9636_PRES TD9635_LAT TD9635_LON TD9635_WIND TD9635_PRES TD9635_ROCI NEUMANN_LAT NEUMANN_LON NEUMANN_CLASS NEUMANN_WIND NEUMANN_PRES MLC_LAT MLC_LON MLC_CLASS MLC_WIND MLC_PRES USA_GUST BOM_GUST BOM_GUST_PER REUNION_GUST REUNION_GUST_PER USA_SEAHGT USA_SEARAD_NE USA_SEARAD_SE USA_SEARAD_SW USA_SEARAD_NW STORM_SPEED STORM_DIR
1984228N15261 1984 61 EP MM JULIO 1984-08-15 00:00:00 TS 14.5000 -98.8000 25 hurdat_epa main 199 199 O_________O___ hurdat_epa EP101984 14.5000 -98.8000 TD 25 -1 14.5000 -98.8000 1 25 7 269
1984228N15261 1984 61 EP MM JULIO 1984-08-15 03:00:00 TS 14.4932 -99.1441 main 208 208 P_________P___ EP101984 14.4975 -99.1300 TD 25 -1 14.4800 -99.1864 1 25 7 270
1984228N15261 1984 61 EP MM JULIO 1984-08-15 06:00:00 TS 14.4944 -99.5195 25 hurdat_epa main 223 223 O_________P___ hurdat_epa EP101984 14.5000 -99.5000 TD 25 -1 14.4778 -99.5782 1 25 8 272
1984228N15261 1984 61 EP MM JULIO 1984-08-15 09:00:00 TS 14.5179 -99.9465 main 245 241 P_________P___ EP101984 14.5200 -99.9351 TD 25 -1 14.5117 -99.9808 1 25 9 277
1984228N15261 1984 61 EP MM JULIO 1984-08-15 12:00:00 TS 14.6000 -100.400 25 hurdat_epa main 246 243 O_________O___ hurdat_epa EP101984 14.6000 -100.400 TD 25 -1 14.6000 -100.400 1 25 9 286
1984228N15261 1984 61 EP MM JULIO 1984-08-15 15:00:00 TS 14.7715 -100.852 main 248 244 P_________P___ EP101984 14.7775 -100.857 TD 30 -1 14.7538 -100.838 1 27 10 294
1984228N15261 1984 61 EP MM JULIO 1984-08-15 18:00:00 TS 14.9888 -101.295 35 hurdat_epa main 250 243 O_________P___ hurdat_epa EP101984 15.0000 -101.300 TS 35 0 14.9551 -101.279 1 30 9 297
1984228N15261 1984 61 EP MM JULIO 1984-08-15 21:00:00 TS 15.1947 -101.719 main 243 233 P_________P___ EP101984 15.2000 -101.723 TS 35 0 15.1789 -101.706 1 32 9 298
1984228N15261 1984 61 EP MM JULIO 1984-08-16 00:00:00 TS 15.4000 -102.100 35 hurdat_epa main 237 233 O_________O___ hurdat_epa EP101984 15.4000 -102.100 TS 35 0 15.4000 -102.100 2 35 8 301
1984228N15261 1984 61 EP MM JULIO 1984-08-16 03:00:00 TS 15.6010 -102.420 main 235 231 P_________P___ EP101984 15.6074 -102.415 TS 40 0 15.5818 -102.436 2 38 7 304
1984228N15261 1984 61 EP MM JULIO 1984-08-16 06:00:00 TS 15.7892 -102.709 45 hurdat_epa main 237 230 O_________P___ hurdat_epa EP101984 15.8000 -102.700 TS 45 0 15.7570 -102.738 2 42 7 301
1984228N15261 1984 61 EP MM JULIO 1984-08-16 09:00:00 TS 15.9446 -103.005 main 235 221 P_________P___ EP101984 15.9500 -103.000 TS 47 0 15.9287 -103.021 2 46 6 299
1984228N15261 1984 61 EP MM JULIO 1984-08-16 12:00:00 TS 16.1000 -103.300 50 hurdat_epa main 225 214 O_________O___ hurdat_epa EP101984 16.1000 -103.300 TS 50 0 16.1000 -103.300 2 50 7 301
1984228N15261 1984 61 EP MM JULIO 1984-08-16 15:00:00 TS 16.2927 -103.602 main 214 204 P_________P___ EP101984 16.3000 -103.600 TS 50 0 16.2709 -103.608 2 50 7 304
1984228N15261 1984 61 EP MM JULIO 1984-08-16 18:00:00 TS 16.4856 -103.904 50 hurdat_epa main 204 197 O_________P___ hurdat_epa EP101984 16.5000 -103.900 TS 50 0 16.4424 -103.915 2 50 7 301
1984228N15261 1984 61 EP MM JULIO 1984-08-16 21:00:00 TS 16.6419 -104.209 main 204 193 P_________P___ EP101984 16.6500 -104.208 TS 50 0 16.6178 -104.215 2 50 7 299
1984228N15261 1984 61 EP MM JULIO 1984-08-17 00:00:00 TS 16.8000 -104.500 50 hurdat_epa main 198 193 O_________O___ hurdat_epa EP101984 16.8000 -104.500 TS 50 0 16.8000 -104.500 2 50 6 304
1984228N15261 1984 61 EP MM JULIO 1984-08-17 03:00:00 TS 16.9935 -104.761 main 200 192 P_________P___ EP101984 16.9924 -104.758 TS 52 0 16.9967 -104.773 2 48 6 310
1984228N15261 1984 61 EP MM JULIO 1984-08-17 06:00:00 TS 17.2000 -105.008 55 hurdat_epa main 200 200 O_________P___ hurdat_epa EP101984 17.2000 -105.000 TS 55 0 17.1999 -105.030 2 47 6 311
1984228N15261 1984 61 EP MM JULIO 1984-08-17 09:00:00 TS 17.4064 -105.261 main 207 189 P_________P___ EP101984 17.4075 -105.258 TS 50 0 17.4030 -105.273 2 46 6 310
1984228N15261 1984 61 EP MM JULIO 1984-08-17 12:00:00 TS 17.6000 -105.500 45 hurdat_epa main 193 183 O_________O___ hurdat_epa EP101984 17.6000 -105.500 TS 45 0 17.6000 -105.500 2 45 6 309
1984228N15261 1984 61 EP MM JULIO 1984-08-17 15:00:00 TS 17.7590 -105.711 main 183 179 P_________P___ EP101984 17.7500 -105.708 TS 37 0 17.7862 -105.723 2 41 5 309
1984228N15261 1984 61 EP MM JULIO 1984-08-17 18:00:00 TS 17.9162 -105.908 30 hurdat_epa main 186 184 O_________P___ hurdat_epa EP101984 17.9000 -105.900 TD 30 -1 17.9649 -105.930 2 37 5 313
1984228N15261 1984 61 EP MM JULIO 1984-08-17 21:00:00 TS 18.1034 -106.106 main 184 184 P_________P___ EP101984 18.0925 -106.100 TD 30 -1 18.1362 -106.123 2 33 5 316
1984228N15261 1984 61 EP MM JULIO 1984-08-18 00:00:00 TS 18.3000 -106.300 30 hurdat_epa main 184 184 O_________O___ hurdat_epa EP101984 18.3000 -106.300 TD 30 -1 18.3000 -106.300 1 30 6 317
1984228N15261 1984 61 EP MM JULIO 1984-08-18 03:00:00 TS 18.5026 -106.503 main 184 183 P_________P___ EP101984 18.5150 -106.515 TD 30 -1 18.4652 -106.469 1 30 5 316
1984228N15261 1984 61 EP MM JULIO 1984-08-18 06:00:00 TS 18.6806 -106.681 30 hurdat_epa main 184 184 O_________P___ hurdat_epa EP101984 18.7000 -106.700 TD 30 -1 18.6224 -106.623 1 30 4 317
1984228N15261 1984 61 EP MM JULIO 1984-08-18 09:00:00 TS 18.8033 -106.803 main 186 186 P_________P___ EP101984 18.8150 -106.815 TD 30 -1 18.7684 -106.765 1 30 3 316
1984228N15261 1984 61 EP MM JULIO 1984-08-18 12:00:00 TS 18.9000 -106.900 30 hurdat_epa main 190 190 O_________O___ hurdat_epa EP101984 18.9000 -106.900 TD 30 -1 18.9000 -106.900 1 30 3 316
1984228N15261 1984 61 EP MM JULIO 1984-08-18 15:00:00 TS 19.0036 -107.003 main 192 192 P_________P___ EP101984 19.0000 -106.993 TD 27 -1 19.0143 -107.036 1 28 3 314
1984228N15261 1984 61 EP MM JULIO 1984-08-18 18:00:00 TS 19.1037 -107.116 25 hurdat_epa main 195 195 O_________P___ hurdat_epa EP101984 19.1000 -107.100 TD 25 -1 19.1150 -107.165 1 27 3 310
1984228N15261 1984 61 EP MM JULIO 1984-08-18 21:00:00 TS 19.2020 -107.259 main 208 204 P_________P___ EP101984 19.2000 -107.250 TD 25 -1 19.2081 -107.286 1 26 3 306
1984228N15261 1984 61 EP MM JULIO 1984-08-19 00:00:00 TS 19.3000 -107.400 25 hurdat_epa main 213 213 O_________O___ hurdat_epa EP101984 19.3000 -107.400 TD 25 -1 19.3000 -107.400 1 25 3 310
1984228N15261 1984 61 EP MM JULIO 1984-08-19 03:00:00 TS 19.4010 -107.508 main 218 218 P_________P___ EP101984 19.4000 -107.508 TD 25 -1 19.4040 -107.511 1 25 3 316
1984228N15261 1984 61 EP MM JULIO 1984-08-19 06:00:00 TS 19.5019 -107.604 25 hurdat_epa main 222 222 O_________P___ hurdat_epa EP101984 19.5000 -107.600 TD 25 -1 19.5075 -107.615 1 25 3 318
1984228N15261 1984 61 EP MM JULIO 1984-08-19 09:00:00 TS 19.6018 -107.703 main 227 227 P_________P___ EP101984 19.6000 -107.700 TD 25 -1 19.6072 -107.711 1 25 3 317
1984228N15261 1984 61 EP MM JULIO 1984-08-19 12:00:00 TS 19.7000 -107.800 25 hurdat_epa main 232 232 O_________O___ hurdat_epa EP101984 19.7000 -107.800 TD 25 -1 19.7000 -107.800 1 25 3 318
1984228N15261 1984 61 EP MM JULIO 1984-08-19 15:00:00 TS 19.8073 -107.900 main 239 236 P_________P___ EP101984 19.8075 -107.907 TD 25 -1 19.8065 -107.878 1 25 3 318
1984228N15261 1984 61 EP MM JULIO 1984-08-19 18:00:00 TS 19.9006 -107.987 25 hurdat_epa main 246 244 O_________P___ hurdat_epa EP101984 19.9000 -108.000 TD 25 -1 19.9024 -107.950 1 25 2 320
1984228N15261 1984 61 EP MM JULIO 1984-08-19 21:00:00 TS 19.9668 -108.043 main 244 244 P_________P___ EP101984 19.9650 -108.050 TD 25 -1 19.9721 -108.022 1 25 1 314
1984228N15261 1984 61 EP MM JULIO 1984-08-20 00:00:00 TS 20.0000 -108.100 25 hurdat_epa main 254 254 O_________O___ hurdat_epa EP101984 20.0000 -108.100 TD 25 -1 20.0000 -108.100 1 25 1 290
1984228N15261 1984 61 EP MM JULIO 1984-08-20 03:00:00 TS 20.0163 -108.192 main 264 264 P_________P___ EP101984 20.0300 -108.192 TD 25 -1 19.9754 -108.189 1 25 2 263
1984228N15261 1984 61 EP MM JULIO 1984-08-20 06:00:00 TS 19.9769 -108.297 25 hurdat_epa main 274 274 O_________P___ hurdat_epa EP101984 20.0000 -108.300 TD 25 -1 19.9076 -108.288 1 25 3 232
1984228N15261 1984 61 EP MM JULIO 1984-08-20 09:00:00 TS 19.8609 -108.400 main 287 287 P_________P___ EP101984 19.8775 -108.403 TD 25 -1 19.8110 -108.392 1 25 3 214
1984228N15261 1984 61 EP MM JULIO 1984-08-20 12:00:00 TS 19.7000 -108.500 25 hurdat_epa main 302 O_________O___ hurdat_epa EP101984 19.7000 -108.500 TD 25 -1 19.7000 -108.500 1 25 4 212

IBTrACS Databaseについて

本データベースは、米国NOAAが公開する1842年以降の世界の熱帯低気圧のベストトラックデータアーカイブInternational Best Track Archive for Climate Stewardship (IBTrACS)を、ウェブで閲覧しやすい形式に変換したものです。

最終更新日:2021-12-01